Hlavní strana
METAR-TAF:

METAR-TAF

Letiště :

La Carlota, Venezuela

zeměpisná šířka: 10-30N, zeměpisná délka: 066-53W, výška: 835 m

Aktuální stav počasí

Zpráva byla vytvořena před 30 minutami, v 12:02 UTC
Východojihovýchodní vítr 4 kt
Teplota 25°C
Vlhkost vzduchu 65%
Tlak 1016 hPa

METAR: SVFM 261202Z AUTO 12004KT NCD 25/18 Q1016

Čas: 08:32 (12:32 UTC)


TAF: chybějící

Stav a předpovědi počasí z více než 4 000 letišť (zprávy METAR a TAF).

Červené a žluté tečky na mapě představují dostupné meteorologické stanice.

Když kurzor umístíte na tečku, zobrazí se název stanice.

Pak kliknutím zobrazíte stav a předpověď počasí.

Chcete-li změnit mapu, kliknutím na zelené tlačítko se znaménkem +mapu přiblížíte, kliknutím na zelené tlačítko se znaménkem – mapu oddálíte a kliknutím na zelené šipky přejdete na sousední mapy.


METAR-TAF: